This demonstration page uses our WeatherBlox Daily Observations layout. Learn more.

Left ArrowRight Arrow

38.88101, -77.10428

Hourly Observations for December 21, 2019

Temp ( °F °C ) Dew Point ( °F °C ) Humidity (%) Winds ( mph kmh ) Pressure ( in mb ) Visibility ( mi km ) Precip ( " mm )
12:52 am 00:52 Cloudy 31 -0.6 21 -6.1 67 67 Calm 30.64 1038 10 16.0934 0 0
1:52 am 01:52 Cloudy 31 -0.6 22 -5.6 69 69 N 3 6 30.65 1038 10 16.0934 0 0
2:52 am 02:52 Cloudy 31 -0.6 21 -6.1 67 67 Calm 30.65 1038 10 16.0934 0 0
3:52 am 03:52 Cloudy 31 -0.6 21 -6.1 67 67 Calm 30.64 1038 10 16.0934 0 0
4:52 am 04:52 Cloudy 29 -1.7 20 -6.7 69 69 NE 3 6 30.62 1037 10 16.0934 0 0
5:52 am 05:52 Cloudy 30 -1.1 20 -6.7 66 66 Calm 30.63 1037 10 16.0934 0 0
6:52 am 06:52 Cloudy 30 -1.1 20 -6.7 66 66 Calm 30.63 1037 10 16.0934 0 0
7:52 am 07:52 Mostly Cloudy 30 -1.1 20 -6.7 66 66 E 3 6 30.64 1038 10 16.0934 0 0
8:52 am 08:52 Mostly Cloudy 31 -0.6 21 -6.1 67 67 ENE 3 6 30.64 1038 10 16.0934 0 0
9:52 am 09:52 Mostly Cloudy 33 0.6 22 -5.6 64 64 Calm 30.63 1037 10 16.0934 0 0
10:52 am 10:52 Cloudy 35 1.7 20 -6.7 54 54 S 5 7 30.6 1036 10 16.0934 0 0
11:52 am 11:52 Cloudy 36 2.2 22 -5.6 57 57 SSE 5 7 30.57 1035 10 16.0934 0 0
12:52 pm 12:52 Cloudy 36 2.2 22 -5.6 57 57 SSE 5 7 30.55 1034 10 16.0934 0 0
1:52 pm 13:52 Cloudy 38 3.3 22 -5.6 52 52 SE 3 6 30.51 1033 10 16.0934 0 0
2:52 pm 14:52 Cloudy 38 3.3 23 -5 55 55 S 5 7 30.51 1033 10 16.0934 0 0
3:52 pm 15:52 Mostly Cloudy 38 3.3 23 -5 55 55 SE 6 9 30.5 1033 10 16.0934 0 0
4:52 pm 16:52 Partly Cloudy 37 2.8 23 -5 57 57 SSW 7 11 30.49 1033 10 16.0934 0 0
5:52 pm 17:52 Mostly Clear 35 1.7 26 -3.3 70 70 Calm 30.5 1033 10 16.0934 0 0
6:52 pm 18:52 Partly Cloudy 34 1.1 26 -3.3 73 73 SSE 3 6 30.5 1033 10 16.0934 0 0
7:52 pm 19:52 Mostly Clear 34 1.1 24 -4.4 67 67 SE 6 9 30.49 1033 10 16.0934 0 0
8:52 pm 20:52 Mostly Clear 32 0 26 -3.3 79 79 S 6 9 30.5 1033 10 16.0934 0 0
9:52 pm 21:52 Mostly Clear 32 0 25 -3.9 75 75 SW 3 6 30.49 1033 9 14.48406 0 0
10:52 pm 22:52 Partly Cloudy 32 0 26 -3.3 79 79 Calm 30.49 1033 8 12.87472 0 0
11:52 pm 23:52 Partly Cloudy 32 0 27 -2.8 82 82 Calm 30.47 1032 9 14.48406 0 0

Powered by AerisWeather